14°C Temp
13°C Dewpoint
94% Humidity
Temperature
3 KM/H
2 MPH
2 KTS
Calm
Due North

Wind Speed
Partly Cloudy
Conditions
Pressure 1016.92 (hPa) - 30.03 (in)
Visibility 6.2 (mi) - 10.0 (km)

Current Conditions
LECO
Location 50(km)
Metar :LECO 292300Z VRB02KT 9999 FEW030TCU SCT035 14/13 Q1017 NOSIG
Fri 30th September 01:00 am

Airport
  Metar Aviation API Data Provided by https://www.checkwx.com/ PHP scripts by weather34.com ©2022